Jona — CQFI — position and weather

sailwx.info

Track history (hours):
 
Tides and Currents Weather Stations Pressure Air Temp Water Temp Dewpoint Dewpoint Depression Visibility Wind Speed Wind Dir Waves Ship Positions

Jona

Last reported at 2017-Nov-24 21:31 UTC. Time now 2017-Nov-24 22:15 UTC.
Position N 36°57' W 001°26'.

Length 192 m; draft 9.6 m.

Type: Ship (hazmat cat A). MMSI: 255805610.

Date/timePositionNaut miles runAvg speedWind from/ knotsBaromVisibWave heightAir tempDewpointWater temp
2017-Nov-24 21:31N 36°57' W 001°26'016.4
2017-Nov-24 21:30N 36°57' W 001°26'816.1
2017-Nov-24 21:00N 37°02' W 001°18'916.1
2017-Nov-24 20:28N 37°08' W 001°10'716.1
2017-Nov-24 20:00N 37°13' W 001°03'816.1
2017-Nov-24 19:30N 37°18' W 000°56'815.9
2017-Nov-24 19:00N 37°23' W 000°48'816.1
2017-Nov-24 18:29N 37°29' W 000°41'815.9
2017-Nov-24 18:00N 37°34' W 000°34'816.2
2017-Nov-24 17:30N 37°41' W 000°28'816.2
2017-Nov-24 17:00N 37°48' W 000°22'816.0
2017-Nov-24 16:29N 37°55' W 000°17'815.9
2017-Nov-24 16:00N 38°02' W 000°13'815.9
2017-Nov-24 15:30N 38°09' W 000°07'815.8
2017-Nov-24 15:00N 38°14' W 000°00'815.7
2017-Nov-24 14:30N 38°21' E 000°06'815.9
2017-Nov-24 14:00N 38°27' E 000°12'815.8
2017-Nov-24 13:30N 38°33' E 000°18'815.6
2017-Nov-24 12:58N 38°41' E 000°22'713.8
2017-Nov-24 12:29N 38°48' E 000°22'  
2017-Nov-20 00:29N 44°24' E 008°55'0 0.0
2017-Nov-19 23:59N 44°24' E 008°55'0 0.0
2017-Nov-19 23:28N 44°24' E 008°55'0 0.0
2017-Nov-19 22:58N 44°24' E 008°55'0 0.0
2017-Nov-19 22:28N 44°24' E 008°55'0 0.0
2017-Nov-19 21:58N 44°24' E 008°55'0 0.0
2017-Nov-19 21:28N 44°24' E 008°55'0 0.0
2017-Nov-19 21:00N 44°24' E 008°55'1 1.6
2017-Nov-19 20:30N 44°24' E 008°56'4 7.2
2017-Nov-19 20:00N 44°21' E 008°58'4 8.2
2017-Nov-19 19:31N 44°17' E 008°57'510.4
2017-Nov-19 19:00N 44°12' E 008°55'5 9.4
2017-Nov-19 18:30N 44°07' E 008°54'510.7
2017-Nov-19 18:00N 44°02' E 008°53'612.9
2017-Nov-19 17:30N 43°57' E 008°47'713.4
2017-Nov-19 17:00N 43°52' E 008°40'713.2
2017-Nov-19 16:30N 43°47' E 008°34'713.2
2017-Nov-19 16:00N 43°42' E 008°28'8313.0
2017-Nov-19 09:38N 42°47' E 007°03'23013.3
2017-Nov-18 16:22N 40°24' E 003°02'2213.4
2017-Nov-18 14:43N 40°10' E 002°39'17513.2
2017-Nov-18 01:28N 38°07' W 000°02'2813.5
2017-Nov-17 23:24N 37°44' W 000°22'513.3
2017-Nov-17 23:00N 37°39' W 000°25'713.3
2017-Nov-17 22:30N 37°34' W 000°30'1213.3
2017-Nov-17 21:35N 37°26' W 000°42'113.4
2017-Nov-17 21:30N 37°25' W 000°43'713.3
2017-Nov-17 21:01N 37°21' W 000°49'713.4
2017-Nov-17 20:31N 37°16' W 000°55'21513.2
2017-Nov-17 04:13N 36°05' W 005°09'313.5
2017-Nov-17 04:00N 36°05' W 005°12'612.4
2017-Nov-17 03:31N 36°05' W 005°20'3 6.8
2017-Nov-17 03:00N 36°08' W 005°22'0 0.1
2017-Nov-17 02:28N 36°08' W 005°22'0 0.1
2017-Nov-17 01:55N 36°08' W 005°22'0 0.0
2017-Nov-17 01:20N 36°08' W 005°22'0 0.0
2017-Nov-17 00:55N 36°08' W 005°22'0 0.0
2017-Nov-17 00:17N 36°08' W 005°22'0 0.0
2017-Nov-16 23:55N 36°08' W 005°22'0 0.3
2017-Nov-16 23:25N 36°08' W 005°22'0 0.1
2017-Nov-16 22:46N 36°08' W 005°22'5 0.4
2017-Nov-16 12:32N 36°05' W 005°18'1 5.4
2017-Nov-16 12:25N 36°06' W 005°17'4 2.3
2017-Nov-16 10:28N 36°08' W 005°12'1 0.4
2017-Nov-16 07:49N 36°07' W 005°13'2 4.4
2017-Nov-16 07:27N 36°06' W 005°14'1 1.3
2017-Nov-16 06:55N 36°06' W 005°13'0 0.5
2017-Nov-16 06:30N 36°06' W 005°13'1 1.3
2017-Nov-16 06:00N 36°06' W 005°13'1 1.1
2017-Nov-16 05:30N 36°06' W 005°13'0 0.8
2017-Nov-16 05:00N 36°06' W 005°12'0 0.6
2017-Nov-16 04:30N 36°06' W 005°12'0 0.8
2017-Nov-16 04:00N 36°06' W 005°12'0 0.9
2017-Nov-16 03:30N 36°05' W 005°11'0 0.2
2017-Nov-16 03:00N 36°05' W 005°11'0 0.6
2017-Nov-16 02:26N 36°06' W 005°11'0 1.0
2017-Nov-16 02:00N 36°06' W 005°11'3 6.0
2017-Nov-16 01:30N 36°06' W 005°15'5 9.7
2017-Nov-16 01:00N 36°05' W 005°21'5 6.0
2017-Nov-16 00:13N 36°09' W 005°23'0 1.3
2017-Nov-15 23:51N 36°10' W 005°23'0 0.0
2017-Nov-15 05:25N 36°10' W 005°23'0 0.0
2017-Nov-15 04:46N 36°10' W 005°23'0 0.0
2017-Nov-15 04:24N 36°10' W 005°23'0 0.1
2017-Nov-15 04:00N 36°10' W 005°23'0 0.1
2017-Nov-15 03:30N 36°10' W 005°23'0 0.0
2017-Nov-15 02:52N 36°10' W 005°23'0 0.0
2017-Nov-15 02:30N 36°10' W 005°23'2 1.2
2017-Nov-15 00:31N 36°07' W 005°24'0 3.3
2017-Nov-15 00:30N 36°07' W 005°24'2 3.0
2017-Nov-15 00:00N 36°06' W 005°23'2 3.7
2017-Nov-14 23:30N 36°04' W 005°23'0 0.3
2017-Nov-14 23:00N 36°04' W 005°23'1 1.5
2017-Nov-14 22:19N 36°03' W 005°22'3 8.5
2017-Nov-14 21:59N 36°01' W 005°22'  
Track history (hours):
 
Tides and Currents Weather Stations Pressure Air Temp Water Temp Dewpoint Dewpoint Depression Visibility Wind Speed Wind Dir Waves Ship Positions

Jona

Last reported at 2017-Nov-24 21:31 UTC. Time now 2017-Nov-24 22:15 UTC.
Position N 36°57' W 001°26'.

Length 192 m; draft 9.6 m.

Type: Ship (hazmat cat A). MMSI: 255805610.

Date/timePositionNaut miles runAvg speedWind from/ knotsBaromVisibWave heightAir tempDewpointWater temp
2017-Nov-24 21:31N 36°57' W 001°26'016.4
2017-Nov-24 21:30N 36°57' W 001°26'816.1
2017-Nov-24 21:00N 37°02' W 001°18'916.1
2017-Nov-24 20:28N 37°08' W 001°10'716.1
2017-Nov-24 20:00N 37°13' W 001°03'816.1
2017-Nov-24 19:30N 37°18' W 000°56'815.9
2017-Nov-24 19:00N 37°23' W 000°48'816.1
2017-Nov-24 18:29N 37°29' W 000°41'815.9
2017-Nov-24 18:00N 37°34' W 000°34'816.2
2017-Nov-24 17:30N 37°41' W 000°28'816.2
2017-Nov-24 17:00N 37°48' W 000°22'816.0
2017-Nov-24 16:29N 37°55' W 000°17'815.9
2017-Nov-24 16:00N 38°02' W 000°13'815.9
2017-Nov-24 15:30N 38°09' W 000°07'815.8
2017-Nov-24 15:00N 38°14' W 000°00'815.7
2017-Nov-24 14:30N 38°21' E 000°06'815.9
2017-Nov-24 14:00N 38°27' E 000°12'815.8
2017-Nov-24 13:30N 38°33' E 000°18'815.6
2017-Nov-24 12:58N 38°41' E 000°22'713.8
2017-Nov-24 12:29N 38°48' E 000°22'  
2017-Nov-20 00:29N 44°24' E 008°55'0 0.0
2017-Nov-19 23:59N 44°24' E 008°55'0 0.0
2017-Nov-19 23:28N 44°24' E 008°55'0 0.0
2017-Nov-19 22:58N 44°24' E 008°55'0 0.0
2017-Nov-19 22:28N 44°24' E 008°55'0 0.0
2017-Nov-19 21:58N 44°24' E 008°55'0 0.0
2017-Nov-19 21:28N 44°24' E 008°55'0 0.0
2017-Nov-19 21:00N 44°24' E 008°55'1 1.6
2017-Nov-19 20:30N 44°24' E 008°56'4 7.2
2017-Nov-19 20:00N 44°21' E 008°58'4 8.2
2017-Nov-19 19:31N 44°17' E 008°57'510.4
2017-Nov-19 19:00N 44°12' E 008°55'5 9.4
2017-Nov-19 18:30N 44°07' E 008°54'510.7
2017-Nov-19 18:00N 44°02' E 008°53'612.9
2017-Nov-19 17:30N 43°57' E 008°47'713.4
2017-Nov-19 17:00N 43°52' E 008°40'713.2
2017-Nov-19 16:30N 43°47' E 008°34'713.2
2017-Nov-19 16:00N 43°42' E 008°28'8313.0
2017-Nov-19 09:38N 42°47' E 007°03'23013.3
2017-Nov-18 16:22N 40°24' E 003°02'2213.4
2017-Nov-18 14:43N 40°10' E 002°39'17513.2
2017-Nov-18 01:28N 38°07' W 000°02'2813.5
2017-Nov-17 23:24N 37°44' W 000°22'513.3
2017-Nov-17 23:00N 37°39' W 000°25'713.3
2017-Nov-17 22:30N 37°34' W 000°30'1213.3
2017-Nov-17 21:35N 37°26' W 000°42'113.4
2017-Nov-17 21:30N 37°25' W 000°43'713.3
2017-Nov-17 21:01N 37°21' W 000°49'713.4
2017-Nov-17 20:31N 37°16' W 000°55'21513.2
2017-Nov-17 04:13N 36°05' W 005°09'313.5
2017-Nov-17 04:00N 36°05' W 005°12'612.4
2017-Nov-17 03:31N 36°05' W 005°20'3 6.8
2017-Nov-17 03:00N 36°08' W 005°22'0 0.1
2017-Nov-17 02:28N 36°08' W 005°22'0 0.1
2017-Nov-17 01:55N 36°08' W 005°22'0 0.0
2017-Nov-17 01:20N 36°08' W 005°22'0 0.0
2017-Nov-17 00:55N 36°08' W 005°22'0 0.0
2017-Nov-17 00:17N 36°08' W 005°22'0 0.0
2017-Nov-16 23:55N 36°08' W 005°22'0 0.3
2017-Nov-16 23:25N 36°08' W 005°22'0 0.1
2017-Nov-16 22:46N 36°08' W 005°22'5 0.4
2017-Nov-16 12:32N 36°05' W 005°18'1 5.4
2017-Nov-16 12:25N 36°06' W 005°17'4 2.3
2017-Nov-16 10:28N 36°08' W 005°12'1 0.4
2017-Nov-16 07:49N 36°07' W 005°13'2 4.4
2017-Nov-16 07:27N 36°06' W 005°14'1 1.3
2017-Nov-16 06:55N 36°06' W 005°13'0 0.5
2017-Nov-16 06:30N 36°06' W 005°13'1 1.3
2017-Nov-16 06:00N 36°06' W 005°13'1 1.1
2017-Nov-16 05:30N 36°06' W 005°13'0 0.8
2017-Nov-16 05:00N 36°06' W 005°12'0 0.6
2017-Nov-16 04:30N 36°06' W 005°12'0 0.8
2017-Nov-16 04:00N 36°06' W 005°12'0 0.9
2017-Nov-16 03:30N 36°05' W 005°11'0 0.2
2017-Nov-16 03:00N 36°05' W 005°11'0 0.6
2017-Nov-16 02:26N 36°06' W 005°11'0 1.0
2017-Nov-16 02:00N 36°06' W 005°11'3 6.0
2017-Nov-16 01:30N 36°06' W 005°15'5 9.7
2017-Nov-16 01:00N 36°05' W 005°21'5 6.0
2017-Nov-16 00:13N 36°09' W 005°23'0 1.3
2017-Nov-15 23:51N 36°10' W 005°23'0 0.0
2017-Nov-15 05:25N 36°10' W 005°23'0 0.0
2017-Nov-15 04:46N 36°10' W 005°23'0 0.0
2017-Nov-15 04:24N 36°10' W 005°23'0 0.1
2017-Nov-15 04:00N 36°10' W 005°23'0 0.1
2017-Nov-15 03:30N 36°10' W 005°23'0 0.0
2017-Nov-15 02:52N 36°10' W 005°23'0 0.0
2017-Nov-15 02:30N 36°10' W 005°23'2 1.2
2017-Nov-15 00:31N 36°07' W 005°24'0 3.3
2017-Nov-15 00:30N 36°07' W 005°24'2 3.0
2017-Nov-15 00:00N 36°06' W 005°23'2 3.7
2017-Nov-14 23:30N 36°04' W 005°23'0 0.3
2017-Nov-14 23:00N 36°04' W 005°23'1 1.5
2017-Nov-14 22:19N 36°03' W 005°22'3 8.5
2017-Nov-14 21:59N 36°01' W 005°22'  

Dump ship's entire track history